| time (UTC) | temp C | wind direction | speed KPH | gust KPH | rain 1hr cm | rain 24hr cm | rain mn cm | humidity % | barometer mb |
| 20260507081517 | 11 | 199 | 1.6 | 6.4 | 0.00 | 0.00 | 0.00 | 89 | 1021.3 |
| 20260507080518 | 11 | 182 | 1.6 | 6.4 | 0.00 | 0.00 | 0.00 | 89 | 1021.3 |
| 20260507075519 | 11 | 193 | 3.2 | 6.4 | 0.00 | 0.00 | 0.00 | 89 | 1021.2 |
| 20260507074518 | 11 | 218 | 6.4 | 11.3 | 0.00 | 0.00 | 0.00 | 89 | 1021.2 |
| 20260507073517 | 11 | 182 | 3.2 | 11.3 | 0.00 | 0.00 | 0.00 | 89 | 1021.3 |
| 20260507072518 | 11 | 206 | 4.8 | 11.3 | 0.00 | 0.00 | 0.00 | 89 | 1021.2 |
| 20260507071517 | 11 | 200 | 4.8 | 11.3 | 0.00 | 0.00 | 0.00 | 89 | 1021.1 |
| 20260507070518 | 11 | 215 | 3.2 | 11.3 | 0.00 | 0.00 | 0.00 | 89 | 1021.1 |
| 20260507065537 | 11 | 189 | 3.2 | 11.3 | 0.00 | 0.00 | 0.00 | 89 | 1021.2 |
| 20260507064517 | 11 | 177 | 6.4 | 12.9 | 0.00 | 0.00 | 0.00 | 89 | 1021.1 |
| 20260507063518 | 11 | 196 | 6.4 | 14.5 | 0.00 | 0.00 | 0.00 | 89 | 1021.0 |
| 20260507062517 | 11 | 184 | 4.8 | 12.9 | 0.00 | 0.00 | 0.00 | 89 | 1021.0 |
| 20260507061517 | 12 | 179 | 9.7 | 17.7 | 0.00 | 0.00 | 0.00 | 88 | 1021.1 |
| 20260507060518 | 12 | 194 | 6.4 | 16.1 | 0.00 | 0.00 | 0.00 | 88 | 1021.2 |
| 20260507055517 | 12 | 199 | 4.8 | 11.3 | 0.00 | 0.00 | 0.00 | 87 | 1021.2 |
| 20260507054518 | 12 | 163 | 4.8 | 11.3 | 0.00 | 0.00 | 0.00 | 87 | 1021.3 |
| 20260507053518 | 12 | 188 | 1.6 | 3.2 | 0.00 | 0.00 | 0.00 | 86 | 1021.3 |
| 20260507052516 | 12 | 187 | 3.2 | 6.4 | 0.00 | 0.00 | 0.00 | 86 | 1021.4 |
| 20260507051517 | 12 | 0.0 | 0.0 | 0.00 | 0.00 | 0.00 | 86 | 1021.3 | |
| 20260507050518 | 12 | 0.0 | 3.2 | 0.00 | 0.00 | 0.00 | 86 | 1021.3 | |
| 20260507045518 | 12 | 184 | 1.6 | 3.2 | 0.00 | 0.00 | 0.00 | 85 | 1021.3 |
| 20260507044517 | 12 | 184 | 1.6 | 9.7 | 0.00 | 0.00 | 0.00 | 85 | 1021.2 |
| 20260507043518 | 12 | 207 | 1.6 | 6.4 | 0.00 | 0.00 | 0.00 | 84 | 1021.2 |
| 20260507042516 | 12 | 210 | 4.8 | 9.7 | 0.00 | 0.00 | 0.00 | 84 | 1021.2 |
| 20260507041517 | 12 | 189 | 1.6 | 9.7 | 0.00 | 0.00 | 0.00 | 83 | 1021.2 |
| 20260507040518 | 13 | 216 | 3.2 | 11.3 | 0.00 | 0.00 | 0.00 | 83 | 1021.1 |
| 20260507035516 | 13 | 189 | 6.4 | 11.3 | 0.00 | 0.00 | 0.00 | 83 | 1021.0 |
| 20260507034517 | 13 | 197 | 3.2 | 11.3 | 0.00 | 0.00 | 0.00 | 82 | 1021.0 |
| 20260507033516 | 13 | 265 | 3.2 | 9.7 | 0.00 | 0.00 | 0.00 | 82 | 1020.9 |
| 20260507032518 | 13 | 224 | 3.2 | 9.7 | 0.00 | 0.00 | 0.00 | 81 | 1020.9 |
| 20260507031516 | 13 | 241 | 3.2 | 11.3 | 0.00 | 0.00 | 0.00 | 80 | 1020.8 |
| 20260507030517 | 13 | 263 | 1.6 | 11.3 | 0.00 | 0.00 | 0.00 | 80 | 1020.7 |
| 20260507025518 | 13 | 260 | 4.8 | 11.3 | 0.00 | 0.00 | 0.00 | 80 | 1020.6 |
| 20260507024517 | 13 | 238 | 3.2 | 12.9 | 0.00 | 0.00 | 0.00 | 79 | 1020.6 |
| 20260507023518 | 13 | 222 | 4.8 | 12.9 | 0.00 | 0.00 | 0.00 | 79 | 1020.5 |
| 20260507022517 | 13 | 266 | 4.8 | 16.1 | 0.00 | 0.00 | 0.00 | 79 | 1020.5 |
| 20260507021518 | 13 | 180 | 4.8 | 9.7 | 0.00 | 0.00 | 0.00 | 79 | 1020.4 |
| 20260507020537 | 13 | 254 | 4.8 | 12.9 | 0.00 | 0.00 | 0.00 | 79 | 1020.3 |
| 20260507015538 | 13 | 256 | 3.2 | 14.5 | 0.00 | 0.00 | 0.00 | 79 | 1020.4 |
| 20260507014518 | 13 | 226 | 4.8 | 12.9 | 0.00 | 0.00 | 0.00 | 78 | 1020.5 |
| 20260507013517 | 14 | 225 | 3.2 | 11.3 | 0.00 | 0.00 | 0.00 | 79 | 1020.5 |
| 20260507012518 | 13 | 218 | 1.6 | 6.4 | 0.00 | 0.00 | 0.00 | 79 | 1020.6 |
| 20260507011537 | 13 | 180 | 3.2 | 9.7 | 0.00 | 0.00 | 0.00 | 79 | 1020.5 |
| 20260507010517 | 14 | 238 | 3.2 | 11.3 | 0.00 | 0.00 | 0.00 | 79 | 1020.6 |
| 20260507005518 | 13 | 207 | 3.2 | 9.7 | 0.00 | 0.00 | 0.00 | 79 | 1020.6 |
| 20260507004517 | 13 | 234 | 6.4 | 14.5 | 0.00 | 0.00 | 0.00 | 78 | 1020.6 |
| 20260507003518 | 14 | 212 | 4.8 | 12.9 | 0.00 | 0.00 | 0.00 | 79 | 1020.6 |
| 20260507002517 | 13 | 233 | 1.6 | 9.7 | 0.00 | 0.00 | 0.00 | 79 | 1020.7 |
| 20260507001518 | 13 | 186 | 6.4 | 12.9 | 0.00 | 0.00 | 0.00 | 79 | 1020.7 |
| 20260507000517 | 13 | 199 | 6.4 | 17.7 | 0.00 | 0.00 | 0.00 | 78 | 1020.7 |
| 20260506235538 | 13 | 214 | 4.8 | 12.9 | 0.00 | 0.00 | 0.00 | 78 | 1020.7 |
| 20260506234517 | 14 | 202 | 3.2 | 11.3 | 0.00 | 0.00 | 0.00 | 77 | 1020.7 |
| 20260506233518 | 14 | 222 | 6.4 | 14.5 | 0.00 | 0.00 | 0.00 | 76 | 1020.7 |
| 20260506232516 | 14 | 234 | 4.8 | 11.3 | 0.00 | 0.00 | 0.00 | 76 | 1020.7 |
| 20260506231537 | 14 | 204 | 6.4 | 16.1 | 0.00 | 0.00 | 0.00 | 75 | 1020.7 |
| 20260506230557 | 14 | 237 | 6.4 | 12.9 | 0.00 | 0.00 | 0.00 | 76 | 1020.8 |
| 20260506225517 | 14 | 193 | 8.0 | 16.1 | 0.00 | 0.00 | 0.00 | 75 | 1020.8 |
| 20260506224519 | 14 | 232 | 6.4 | 11.3 | 0.00 | 0.00 | 0.00 | 75 | 1020.8 |
| 20260506223517 | 14 | 197 | 8.0 | 20.9 | 0.00 | 0.00 | 0.00 | 74 | 1020.8 |
| 20260506222558 | 15 | 197 | 8.0 | 22.5 | 0.00 | 0.00 | 0.00 | 73 | 1020.9 |
| 20260506221517 | 14 | 200 | 4.8 | 11.3 | 0.00 | 0.00 | 0.00 | 75 | 1020.9 |
| 20260506220518 | 14 | 198 | 6.4 | 14.5 | 0.00 | 0.00 | 0.00 | 74 | 1021.0 |
| 20260506215516 | 14 | 186 | 9.7 | 16.1 | 0.00 | 0.00 | 0.00 | 74 | 1021.0 |
| 20260506214517 | 13 | 176 | 6.4 | 17.7 | 0.00 | 0.00 | 0.00 | 75 | 1021.0 |
| 20260506213516 | 13 | 273 | 3.2 | 16.1 | 0.00 | 0.00 | 0.00 | 76 | 1021.0 |
| 20260506212517 | 14 | 256 | 1.6 | 12.9 | 0.00 | 0.00 | 0.00 | 76 | 1021.0 |
| 20260506211518 | 13 | 239 | 4.8 | 11.3 | 0.00 | 0.00 | 0.00 | 76 | 1021.1 |
| 20260506210517 | 14 | 225 | 4.8 | 11.3 | 0.00 | 0.00 | 0.00 | 76 | 1021.0 |
| 20260506205518 | 14 | 270 | 4.8 | 12.9 | 0.00 | 0.00 | 0.00 | 77 | 1021.0 |
| 20260506204517 | 14 | 206 | 3.2 | 11.3 | 0.00 | 0.00 | 0.00 | 76 | 1020.9 |
| 20260506203519 | 14 | 226 | 4.8 | 14.5 | 0.00 | 0.00 | 0.00 | 76 | 1020.9 |
| 20260506202539 | 14 | 233 | 6.4 | 25.7 | 0.00 | 0.00 | 0.00 | 76 | 1020.9 |
| 20260506201517 | 14 | 288 | 4.8 | 14.5 | 0.00 | 0.00 | 0.00 | 77 | 1020.9 |
| 20260506200518 | 13 | 259 | 3.2 | 9.7 | 0.00 | 0.00 | 0.00 | 78 | 1020.8 |
| 20260506195517 | 13 | 277 | 4.8 | 11.3 | 0.00 | 0.00 | 0.00 | 80 | 1020.8 |
| 20260506194518 | 13 | 258 | 4.8 | 12.9 | 0.00 | 0.00 | 0.00 | 80 | 1020.7 |
| 20260506193517 | 13 | 214 | 6.4 | 14.5 | 0.00 | 0.00 | 0.00 | 80 | 1020.7 |
| 20260506192518 | 13 | 210 | 3.2 | 16.1 | 0.00 | 0.00 | 0.00 | 81 | 1020.7 |
| 20260506191517 | 13 | 191 | 6.4 | 14.5 | 0.00 | 0.00 | 0.00 | 82 | 1020.6 |
| 20260506190518 | 13 | 193 | 6.4 | 14.5 | 0.00 | 0.00 | 0.00 | 83 | 1020.5 |
| 20260506185518 | 13 | 214 | 4.8 | 12.9 | 0.00 | 0.00 | 0.00 | 85 | 1020.6 |
| 20260506184517 | 12 | 232 | 0.0 | 4.8 | 0.00 | 0.00 | 0.00 | 88 | 1020.7 |
| 20260506183518 | 12 | 232 | 3.2 | 11.3 | 0.00 | 0.00 | 0.00 | 89 | 1020.7 |
| 20260506182537 | 12 | 227 | 4.8 | 12.9 | 0.00 | 0.00 | 0.00 | 89 | 1020.7 |
| 20260506181519 | 12 | 203 | 4.8 | 14.5 | 0.00 | 0.00 | 0.00 | 88 | 1020.7 |
| 20260506180516 | 12 | 217 | 4.8 | 12.9 | 0.00 | 0.00 | 0.00 | 89 | 1020.4 |
| 20260506175517 | 12 | 199 | 6.4 | 17.7 | 0.00 | 0.00 | 0.00 | 89 | 1020.2 |
| 20260506174518 | 12 | 206 | 4.8 | 16.1 | 0.00 | 0.00 | 0.00 | 90 | 1020.3 |
| 20260506173558 | 12 | 207 | 4.8 | 11.3 | 0.00 | 0.00 | 0.00 | 91 | 1020.3 |
| 20260506172518 | 12 | 233 | 4.8 | 9.7 | 0.00 | 0.00 | 0.00 | 91 | 1020.5 |
| 20260506171521 | 12 | 257 | 3.2 | 11.3 | 0.00 | 0.00 | 0.00 | 91 | 1020.5 |
| 20260506170537 | 12 | 267 | 3.2 | 12.9 | 0.00 | 0.00 | 0.00 | 91 | 1020.5 |
| 20260506165536 | 12 | 221 | 1.6 | 9.7 | 0.00 | 0.00 | 0.00 | 91 | 1020.4 |
| 20260506164518 | 12 | 207 | 3.2 | 6.4 | 0.00 | 0.00 | 0.00 | 90 | 1020.3 |
| 20260506163518 | 12 | 172 | 4.8 | 16.1 | 0.00 | 0.00 | 0.00 | 89 | 1020.2 |
| 20260506162517 | 12 | 203 | 6.4 | 14.5 | 0.00 | 0.00 | 0.00 | 89 | 1020.1 |
| 20260506161539 | 12 | 191 | 8.0 | 16.1 | 0.00 | 0.00 | 0.00 | 89 | 1019.9 |
| 20260506160538 | 12 | 218 | 4.8 | 11.3 | 0.00 | 0.00 | 0.00 | 90 | 1019.7 |
| 20260506155518 | 12 | 203 | 3.2 | 12.9 | 0.00 | 0.00 | 0.00 | 90 | 1019.8 |
| 20260506154517 | 12 | 195 | 4.8 | 12.9 | 0.00 | 0.00 | 0.00 | 90 | 1019.9 |
| 20260506153516 | 11 | 226 | 4.8 | 12.9 | 0.00 | 0.00 | 0.00 | 91 | 1020.2 |
| 20260506152517 | 11 | 218 | 3.2 | 14.5 | 0.00 | 0.00 | 0.00 | 92 | 1020.2 |
| 20260506151518 | 11 | 196 | 4.8 | 11.3 | 0.00 | 0.00 | 0.00 | 92 | 1020.0 |
| 20260506150517 | 11 | 206 | 8.0 | 14.5 | 0.00 | 0.00 | 0.00 | 93 | 1019.7 |
| 20260506145518 | 11 | 182 | 4.8 | 12.9 | 0.00 | 0.00 | 0.00 | 92 | 1019.8 |
| 20260506144537 | 12 | 194 | 3.2 | 4.8 | 0.00 | 0.00 | 0.00 | 92 | 1019.8 |
| 20260506143517 | 11 | 223 | 4.8 | 11.3 | 0.00 | 0.00 | 0.00 | 92 | 1020.0 |
| 20260506142517 | 12 | 219 | 6.4 | 11.3 | 0.00 | 0.00 | 0.00 | 91 | 1019.8 |
| 20260506141518 | 12 | 215 | 4.8 | 11.3 | 0.00 | 0.00 | 0.00 | 91 | 1019.6 |
| 20260506140517 | 12 | 189 | 3.2 | 9.7 | 0.00 | 0.00 | 0.00 | 90 | 1019.5 |
| 20260506135539 | 12 | 184 | 4.8 | 11.3 | 0.00 | 0.00 | 0.00 | 90 | 1019.6 |
| 20260506134538 | 12 | 204 | 3.2 | 9.7 | 0.00 | 0.00 | 0.00 | 90 | 1019.6 |
| 20260506133517 | 12 | 197 | 3.2 | 9.7 | 0.00 | 0.00 | 0.00 | 90 | 1019.5 |
| 20260506132538 | 12 | 240 | 3.2 | 11.3 | 0.00 | 0.00 | 0.00 | 90 | 1019.5 |
| 20260506131517 | 12 | 220 | 3.2 | 9.7 | 0.00 | 0.00 | 0.00 | 90 | 1019.3 |
| 20260506130518 | 12 | 148 | 4.8 | 9.7 | 0.00 | 0.00 | 0.00 | 89 | 1019.0 |
| 20260506125516 | 12 | 195 | 4.8 | 11.3 | 0.00 | 0.00 | 0.00 | 89 | 1019.1 |
| 20260506124518 | 12 | 189 | 3.2 | 6.4 | 0.00 | 0.00 | 0.00 | 89 | 1019.1 |
| 20260506123518 | 12 | 200 | 3.2 | 11.3 | 0.00 | 0.00 | 0.00 | 89 | 1019.0 |
| 20260506122516 | 12 | 179 | 4.8 | 11.3 | 0.00 | 0.00 | 0.00 | 89 | 1018.9 |
| 20260506121518 | 12 | 188 | 4.8 | 9.7 | 0.00 | 0.00 | 0.00 | 89 | 1018.9 |
| 20260506120518 | 12 | 211 | 4.8 | 9.7 | 0.00 | 0.00 | 0.00 | 88 | 1018.9 |
| 20260506115517 | 12 | 184 | 8.0 | 14.5 | 0.00 | 0.00 | 0.00 | 88 | 1018.8 |
| 20260506114518 | 12 | 202 | 4.8 | 11.3 | 0.00 | 0.00 | 0.00 | 88 | 1018.7 |
| 20260506113537 | 12 | 200 | 6.4 | 14.5 | 0.00 | 0.00 | 0.00 | 88 | 1018.6 |
| 20260506112538 | 12 | 202 | 4.8 | 11.3 | 0.00 | 0.00 | 0.00 | 88 | 1018.6 |
| 20260506111517 | 12 | 207 | 3.2 | 9.7 | 0.00 | 0.00 | 0.00 | 88 | 1018.5 |
| 20260506110537 | 12 | 209 | 3.2 | 11.3 | 0.00 | 0.00 | 0.00 | 87 | 1018.5 |
| 20260506105517 | 12 | 199 | 3.2 | 9.7 | 0.00 | 0.00 | 0.00 | 87 | 1018.4 |
| 20260506104517 | 12 | 206 | 4.8 | 11.3 | 0.00 | 0.00 | 0.00 | 87 | 1018.4 |
| 20260506103539 | 12 | 205 | 3.2 | 9.7 | 0.00 | 0.00 | 0.00 | 87 | 1018.3 |
| 20260506102517 | 12 | 205 | 3.2 | 9.7 | 0.00 | 0.00 | 0.00 | 87 | 1018.2 |
| 20260506101518 | 12 | 231 | 4.8 | 12.9 | 0.00 | 0.00 | 0.00 | 87 | 1018.2 |
| 20260506100517 | 12 | 268 | 4.8 | 11.3 | 0.00 | 0.00 | 0.00 | 87 | 1018.2 |
| 20260506095519 | 12 | 226 | 6.4 | 16.1 | 0.00 | 0.00 | 0.00 | 87 | 1018.1 |
| 20260506094517 | 12 | 202 | 3.2 | 11.3 | 0.00 | 0.00 | 0.00 | 87 | 1017.9 |
| 20260506093518 | 12 | 215 | 4.8 | 11.3 | 0.00 | 0.00 | 0.00 | 87 | 1017.9 |
| 20260506092537 | 12 | 237 | 4.8 | 11.3 | 0.00 | 0.00 | 0.00 | 87 | 1017.8 |
| 20260506091538 | 12 | 204 | 3.2 | 9.7 | 0.00 | 0.00 | 0.00 | 87 | 1017.7 |
| 20260506090540 | 12 | 220 | 1.6 | 4.8 | 0.00 | 0.00 | 0.00 | 87 | 1017.7 |
| 20260506085537 | 12 | 221 | 3.2 | 9.7 | 0.00 | 0.00 | 0.00 | 88 | 1017.6 |
| 20260506084518 | 12 | 220 | 1.6 | 4.8 | 0.00 | 0.00 | 0.00 | 87 | 1017.5 |
| 20260506083517 | 12 | 220 | 1.6 | 4.8 | 0.00 | 0.00 | 0.00 | 87 | 1017.3 |
| 20260506082518 | 12 | 220 | 3.2 | 6.4 | 0.00 | 0.00 | 0.00 | 87 | 1017.3 |